Time;durP1;ratioP1;P1;durP2;ratioP2;P2;SDS_P1;SDS_P2;PMS_P1;PMS_P2;Temp;Humidity;BMP_temperature;BMP_pressure;BME280_temperature;BME280_humidity;BME280_pressure;Samples;Min_cycle;Max_cycle;Signal;HPM_P1;HPM_P2
2023/12/09 00:00:32;;;;;;;107.00;44.40;;;;;;;-0.48;100.00;100543.30;213481;1290;141364;-92
2023/12/09 00:05:32;;;;;;;108.90;39.60;;;;;;;-0.50;100.00;100548.73;214100;1290;139974;-90
2023/12/09 00:10:34;;;;;;;110.80;41.70;;;;;;;-0.48;100.00;100543.52;213823;1290;143219;-92
2023/12/09 00:15:35;;;;;;;115.10;43.70;;;;;;;-0.49;100.00;100540.08;214286;1290;139684;-94
2023/12/09 00:20:36;;;;;;;110.30;41.50;;;;;;;-0.50;100.00;100540.14;214091;1288;142124;-94
2023/12/09 00:25:36;;;;;;;104.50;42.40;;;;;;;-0.49;100.00;100544.52;215317;1289;97923;-93
2023/12/09 00:30:37;;;;;;;112.60;42.70;;;;;;;-0.52;100.00;100542.14;214713;1290;141449;-92
2023/12/09 00:35:37;;;;;;;109.60;42.70;;;;;;;-0.54;100.00;100533.20;215404;1290;139913;-93
2023/12/09 00:40:38;;;;;;;102.70;42.00;;;;;;;-0.53;100.00;100522.14;214604;1289;141673;-95
2023/12/09 00:45:38;;;;;;;102.20;41.60;;;;;;;-0.52;100.00;100525.96;215344;1290;140039;-92
2023/12/09 00:50:39;;;;;;;105.90;41.10;;;;;;;-0.50;100.00;100525.70;214562;1289;142015;-93
2023/12/09 00:55:39;;;;;;;115.30;45.60;;;;;;;-0.49;100.00;100520.89;215078;1290;99385;-93
2023/12/09 01:00:40;;;;;;;102.20;40.50;;;;;;;-0.49;100.00;100516.62;215731;1289;141356;-93
2023/12/09 01:05:40;;;;;;;108.00;41.20;;;;;;;-0.47;100.00;100525.64;217837;1290;139953;-94
2023/12/09 01:10:41;;;;;;;168.60;54.40;;;;;;;-0.45;100.00;100525.92;216244;1288;140736;-94
2023/12/09 01:15:41;;;;;;;120.20;44.50;;;;;;;-0.46;100.00;100524.98;214479;1290;139846;-92
2023/12/09 01:20:42;;;;;;;109.40;42.70;;;;;;;-0.49;100.00;100524.61;213776;1290;140940;-93
2023/12/09 01:25:42;;;;;;;101.80;39.80;;;;;;;-0.48;100.00;100519.46;214440;1290;98004;-93
2023/12/09 01:30:43;;;;;;;105.60;42.00;;;;;;;-0.49;100.00;100508.99;213692;1290;141075;-94
2023/12/09 01:35:44;;;;;;;112.00;40.50;;;;;;;-0.49;100.00;100507.09;214373;1290;140330;-93
2023/12/09 01:40:52;;;;;;;102.90;41.30;;;;;;;-0.49;100.00;100502.77;213725;1291;142322;-94
2023/12/09 01:45:59;;;;;;;91.50;37.80;;;;;;;-0.47;100.00;100503.92;214459;1290;139729;-92
2023/12/09 01:51:05;;;;;;;111.80;42.10;;;;;;;-0.46;100.00;100502.79;214119;1290;143140;-94
2023/12/09 01:56:09;;;;;;;103.10;41.30;;;;;;;-0.42;100.00;100503.27;214211;1289;99017;-93
2023/12/09 02:01:12;;;;;;;101.70;40.80;;;;;;;-0.41;100.00;100502.59;213478;1289;141391;-93
2023/12/09 02:06:12;;;;;;;110.30;40.30;;;;;;;-0.40;100.00;100504.26;214513;1290;140013;-94
2023/12/09 02:11:21;;;;;;;118.60;44.30;;;;;;;-0.42;100.00;100504.40;214941;1290;141639;-96
2023/12/09 02:16:46;;;;;;;105.60;40.00;;;;;;;-0.39;100.00;100505.31;215224;1290;139855;-94
2023/12/09 02:22:01;;;;;;;105.40;41.80;;;;;;;-0.37;100.00;100501.04;214920;1289;141460;-92
2023/12/09 02:27:12;;;;;;;100.00;38.80;;;;;;;-0.35;100.00;100491.64;215177;1289;140864;-92
2023/12/09 02:32:17;;;;;;;102.10;40.10;;;;;;;-0.34;100.00;100488.60;215256;1292;141113;-92
2023/12/09 02:37:20;;;;;;;94.80;38.90;;;;;;;-0.33;100.00;100483.60;215523;1289;140423;-94
2023/12/09 02:42:21;;;;;;;113.70;42.90;;;;;;;-0.33;100.00;100481.77;215419;1289;141025;-94
2023/12/09 02:47:22;;;;;;;97.10;37.60;;;;;;;-0.32;100.00;100486.45;217591;1289;139979;-93
2023/12/09 02:52:22;;;;;;;102.50;39.00;;;;;;;-0.32;100.00;100482.92;217510;1289;140939;-94
2023/12/09 02:57:23;;;;;;;110.00;42.60;;;;;;;-0.32;100.00;100483.63;214859;1290;139774;-93
2023/12/09 03:02:23;;;;;;;103.30;39.10;;;;;;;-0.30;100.00;100479.41;214233;1290;141755;-93
2023/12/09 03:07:24;;;;;;;99.70;39.10;;;;;;;-0.28;100.00;100475.86;214607;1291;98401;-93
2023/12/09 03:12:25;;;;;;;90.50;37.90;;;;;;;-0.26;100.00;100476.15;213771;1290;140878;-93
2023/12/09 03:17:25;;;;;;;94.30;37.80;;;;;;;-0.26;100.00;100469.53;214261;1289;139589;-94
2023/12/09 03:22:26;;;;;;;95.70;37.70;;;;;;;-0.26;100.00;100472.43;213952;1289;141525;-93
2023/12/09 03:27:27;;;;;;;100.80;40.20;;;;;;;-0.28;100.00;100472.73;214506;1291;139576;-92
2023/12/09 03:32:27;;;;;;;93.60;39.00;;;;;;;-0.27;100.00;100473.58;213838;1292;141698;-93
2023/12/09 03:37:28;;;;;;;100.50;38.80;;;;;;;-0.28;100.00;100469.41;214768;1290;97939;-94
2023/12/09 03:42:28;;;;;;;99.80;39.90;;;;;;;-0.23;100.00;100474.94;214052;1290;142135;-93
2023/12/09 03:47:29;;;;;;;89.90;35.80;;;;;;;-0.22;100.00;100463.17;214974;1290;139527;-93
2023/12/09 03:52:30;;;;;;;106.70;41.30;;;;;;;-0.20;100.00;100465.29;215033;1289;141515;-95
2023/12/09 03:57:30;;;;;;;97.70;38.00;;;;;;;-0.17;100.00;100465.48;215918;1289;139918;-93
2023/12/09 04:02:31;;;;;;;94.20;38.10;;;;;;;-0.16;100.00;100458.67;215063;1289;142470;-94
2023/12/09 04:07:31;;;;;;;99.60;41.50;;;;;;;-0.14;100.00;100470.47;215801;1289;108441;-92
2023/12/09 04:12:32;;;;;;;96.80;38.80;;;;;;;-0.11;100.00;100463.84;215015;1290;141543;-92
2023/12/09 04:17:33;;;;;;;110.80;43.00;;;;;;;-0.10;100.00;100465.21;215760;1289;139388;-93
2023/12/09 04:22:37;;;;;;;98.70;41.90;;;;;;;-0.10;100.00;100463.33;215308;1288;142081;-92
2023/12/09 04:27:39;;;;;;;96.60;39.50;;;;;;;-0.08;100.00;100476.17;216855;1288;139406;-93
2023/12/09 04:32:41;;;;;;;90.30;39.10;;;;;;;-0.09;100.00;100474.13;217453;1288;140934;-92
2023/12/09 04:37:41;;;;;;;102.40;41.50;;;;;;;-0.06;100.00;100471.42;216933;1290;99192;-91
2023/12/09 04:42:42;;;;;;;103.60;41.40;;;;;;;-0.03;100.00;100467.12;214250;1289;141018;-92
2023/12/09 04:47:43;;;;;;;104.80;42.40;;;;;;;-0.02;100.00;100467.31;214791;1288;139622;-92
2023/12/09 04:52:44;;;;;;;112.50;42.20;;;;;;;-0.04;100.00;100469.46;213941;1290;143462;-91
2023/12/09 04:57:44;;;;;;;105.80;44.60;;;;;;;-0.03;100.00;100465.34;214593;1291;140534;-90
2023/12/09 05:02:45;;;;;;;100.00;40.50;;;;;;;-0.02;100.00;100460.67;213913;1289;141275;-93
2023/12/09 05:07:45;;;;;;;110.50;44.60;;;;;;;-0.02;100.00;100461.46;214898;1290;98059;-92
2023/12/09 05:12:46;;;;;;;98.00;41.70;;;;;;;-0.04;100.00;100458.55;213973;1289;140596;-93
2023/12/09 05:17:47;;;;;;;100.80;41.50;;;;;;;-0.03;100.00;100463.50;214588;1288;139411;-93
2023/12/09 05:22:48;;;;;;;112.30;45.40;;;;;;;-0.02;100.00;100463.63;214535;1290;141861;-94
2023/12/09 05:27:48;;;;;;;103.40;43.90;;;;;;;0.01;100.00;100467.02;214731;1288;139932;-93
2023/12/09 05:32:49;;;;;;;94.20;40.30;;;;;;;0.03;100.00;100466.43;214574;1290;140896;-90
2023/12/09 05:37:49;;;;;;;99.30;41.30;;;;;;;0.03;100.00;100465.25;215653;1290;98463;-92
2023/12/09 05:42:50;;;;;;;100.10;42.30;;;;;;;0.05;100.00;100469.34;214956;1290;140431;-92
2023/12/09 05:47:50;;;;;;;102.30;42.50;;;;;;;0.09;100.00;100466.23;215790;1289;140266;-92
2023/12/09 05:52:51;;;;;;;97.00;42.90;;;;;;;0.14;100.00;100474.45;214963;1289;141639;-91
2023/12/09 05:57:52;;;;;;;96.60;40.70;;;;;;;0.16;100.00;100473.74;215535;1290;139837;-91
2023/12/09 06:02:52;;;;;;;101.50;43.80;;;;;;;0.17;100.00;100466.55;215957;1289;141953;-92
2023/12/09 06:07:53;;;;;;;102.10;42.90;;;;;;;0.18;100.00;100463.40;215798;1289;97500;-91
2023/12/09 06:12:53;;;;;;;101.40;42.40;;;;;;;0.21;100.00;100463.39;217340;1290;141198;-91
2023/12/09 06:17:54;;;;;;;94.70;39.00;;;;;;;0.24;100.00;100464.75;217852;1289;139474;-93
2023/12/09 06:22:55;;;;;;;99.80;41.10;;;;;;;0.25;100.00;100465.03;214538;1290;141393;-91
2023/12/09 06:27:55;;;;;;;90.80;40.20;;;;;;;0.26;100.00;100460.56;214938;1290;139295;-93
2023/12/09 06:32:55;;;;;;;90.90;41.80;;;;;;;0.27;100.00;100462.87;214131;1290;140686;-92
2023/12/09 06:37:56;;;;;;;89.40;40.40;;;;;;;0.30;100.00;100457.29;214727;1290;98033;-92
2023/12/09 06:42:57;;;;;;;94.10;40.00;;;;;;;0.33;100.00;100460.45;214224;1289;142147;-92
2023/12/09 06:47:57;;;;;;;94.90;40.40;;;;;;;0.36;100.00;100460.69;214411;1289;139273;-93
2023/12/09 06:53:00;;;;;;;89.30;41.20;;;;;;;0.39;100.00;100459.81;214123;1292;141816;-95
2023/12/09 06:58:02;;;;;;;86.00;39.40;;;;;;;0.42;100.00;100454.33;214698;1290;139380;-92
2023/12/09 07:03:03;;;;;;;83.10;37.50;;;;;;;0.44;100.00;100457.41;213881;1290;141239;-95
2023/12/09 07:08:04;;;;;;;97.10;40.90;;;;;;;0.46;100.00;100455.95;214972;1292;97949;-94
2023/12/09 07:13:04;;;;;;;87.00;38.40;;;;;;;0.49;100.00;100452.18;215053;1289;140614;-95
2023/12/09 07:18:05;;;;;;;82.40;36.00;;;;;;;0.52;100.00;100451.95;216035;1289;139088;-95
2023/12/09 07:23:05;;;;;;;91.60;40.40;;;;;;;0.55;100.00;100449.81;215357;1289;140800;-93
2023/12/09 07:28:06;;;;;;;92.20;41.60;;;;;;;0.57;100.00;100448.14;215555;1289;139292;-94
2023/12/09 07:33:06;;;;;;;79.70;36.80;;;;;;;0.59;100.00;100444.50;215401;1289;140737;-93
2023/12/09 07:38:07;;;;;;;87.20;38.20;;;;;;;0.63;100.00;100444.53;216078;1291;96527;-94
2023/12/09 07:43:08;;;;;;;78.80;35.90;;;;;;;0.67;100.00;100440.67;215826;1289;140892;-94
2023/12/09 07:48:09;;;;;;;81.60;36.70;;;;;;;0.70;100.00;100442.86;215887;1288;139786;-93
2023/12/09 07:53:09;;;;;;;89.40;36.40;;;;;;;0.72;100.00;100439.73;215756;1288;140712;-92
2023/12/09 07:58:10;;;;;;;85.50;37.10;;;;;;;0.77;100.00;100433.91;218055;1288;139298;-91
2023/12/09 08:03:10;;;;;;;79.70;37.20;;;;;;;0.80;100.00;100435.30;216731;1289;141242;-91
2023/12/09 08:08:11;;;;;;;81.50;36.50;;;;;;;0.83;100.00;100438.33;214617;1289;98029;-91
2023/12/09 08:13:11;;;;;;;85.90;36.70;;;;;;;0.85;100.00;100431.67;213941;1290;140687;-90
2023/12/09 08:18:12;;;;;;;91.30;38.40;;;;;;;0.84;100.00;100421.10;214568;1290;139500;-91
2023/12/09 08:23:14;;;;;;;83.90;37.90;;;;;;;0.86;100.00;100425.57;214319;1289;140510;-91
2023/12/09 08:28:14;;;;;;;85.50;38.30;;;;;;;0.90;100.00;100421.73;214743;1288;139514;-92
2023/12/09 08:33:15;;;;;;;98.30;40.20;;;;;;;0.92;100.00;100424.77;214078;1291;140885;-91
2023/12/09 08:38:15;;;;;;;92.60;37.80;;;;;;;0.94;100.00;100428.81;214630;1289;98151;-92
2023/12/09 08:43:16;;;;;;;89.10;38.30;;;;;;;0.96;100.00;100422.48;214055;1289;140276;-93
2023/12/09 08:48:17;;;;;;;100.00;40.00;;;;;;;0.99;100.00;100422.87;214537;1291;140269;-90
2023/12/09 08:53:18;;;;;;;96.70;39.70;;;;;;;1.01;100.00;100430.91;213857;1291;140492;-91
2023/12/09 08:58:19;;;;;;;98.20;41.80;;;;;;;1.00;100.00;100427.23;215000;1290;139800;-91
2023/12/09 09:03:19;;;;;;;102.80;43.80;;;;;;;1.01;100.00;100439.36;215420;1290;140130;-91
2023/12/09 09:08:20;;;;;;;100.80;41.80;;;;;;;1.01;100.00;100433.88;216358;1290;97956;-90
2023/12/09 09:13:20;;;;;;;95.50;37.80;;;;;;;1.04;100.00;100431.23;215480;1290;140815;-90
2023/12/09 09:18:21;;;;;;;97.70;40.10;;;;;;;1.07;100.00;100433.30;215953;1289;141952;-91
2023/12/09 09:23:21;;;;;;;97.70;37.50;;;;;;;1.08;100.00;100425.64;215616;1288;141133;-88
2023/12/09 09:28:21;;;;;;;90.60;36.90;;;;;;;1.09;100.00;100418.64;216125;1291;139638;-87
2023/12/09 09:33:22;;;;;;;94.10;38.90;;;;;;;1.12;100.00;100410.27;216743;1288;141453;-88
2023/12/09 09:38:22;;;;;;;97.50;36.30;;;;;;;1.14;100.00;100405.10;217450;1287;97387;-89
2023/12/09 09:43:28;;;;;;;94.40;38.40;;;;;;;1.16;100.00;100397.22;217491;1287;140510;-87
2023/12/09 09:48:35;;;;;;;109.40;39.60;;;;;;;1.19;100.00;100392.65;216335;1288;238873;-88
2023/12/09 09:53:45;;;;;;;104.60;35.70;;;;;;;1.21;100.00;100391.34;213996;1288;141688;-88
2023/12/09 09:58:46;;;;;;;104.50;37.70;;;;;;;1.22;100.00;100385.25;214485;1287;140122;-89
2023/12/09 10:03:46;;;;;;;103.00;38.90;;;;;;;1.23;100.00;100373.29;217162;1288;141144;-88
2023/12/09 10:08:47;;;;;;;89.80;35.40;;;;;;;1.25;100.00;100357.73;214440;1288;140085;-88
2023/12/09 10:13:48;;;;;;;106.80;38.50;;;;;;;1.27;100.00;100352.13;213790;1288;140965;-88
2023/12/09 10:18:49;;;;;;;100.10;37.60;;;;;;;1.29;100.00;100350.05;214409;1288;139221;-87
2023/12/09 10:23:50;;;;;;;116.80;40.50;;;;;;;1.32;100.00;100350.02;216205;1289;140630;-87
2023/12/09 10:28:51;;;;;;;106.30;38.50;;;;;;;1.34;100.00;100346.77;214644;1288;140071;-88
2023/12/09 10:33:51;;;;;;;100.20;38.80;;;;;;;1.36;100.00;100336.52;214065;1291;140958;-88
2023/12/09 10:38:52;;;;;;;104.60;38.10;;;;;;;1.37;100.00;100335.33;214616;1288;140329;-87
2023/12/09 10:43:56;;;;;;;113.90;42.10;;;;;;;1.40;100.00;100332.20;214547;1292;140845;-85
2023/12/09 10:48:57;;;;;;;112.20;45.00;;;;;;;1.43;100.00;100328.86;215444;1288;139988;-86
2023/12/09 10:53:57;;;;;;;103.70;42.20;;;;;;;1.44;100.00;100316.35;214927;1289;140769;-86
2023/12/09 10:59:00;;;;;;;98.30;41.10;;;;;;;1.47;100.00;100315.77;215499;1289;139449;-86
2023/12/09 11:04:05;;;;;;;94.10;36.20;;;;;;;1.51;100.00;100311.90;214764;1292;141657;-85
2023/12/09 11:09:07;;;;;;;86.50;36.80;;;;;;;1.52;100.00;100315.77;215407;1292;139694;-85
2023/12/09 11:14:11;;;;;;;108.70;43.00;;;;;;;1.54;100.00;100316.23;215069;1288;140356;-85
2023/12/09 11:19:16;;;;;;;103.50;41.60;;;;;;;1.55;100.00;100313.39;215438;1288;139408;-86
2023/12/09 11:24:18;;;;;;;101.00;42.10;;;;;;;1.58;100.00;100310.06;217261;1291;141153;-84
2023/12/09 11:29:19;;;;;;;94.20;40.70;;;;;;;1.59;100.00;100308.97;217707;1288;139410;-84
2023/12/09 11:34:21;;;;;;;97.20;39.90;;;;;;;1.63;100.00;100310.76;214668;1289;141813;-84
2023/12/09 11:39:22;;;;;;;91.60;40.90;;;;;;;1.65;100.00;100301.19;214280;1293;139915;-85
2023/12/09 11:44:24;;;;;;;102.10;44.00;;;;;;;1.68;100.00;100301.05;214036;1292;140203;-85
2023/12/09 11:49:26;;;;;;;93.00;40.00;;;;;;;1.69;100.00;100293.61;214542;1292;139202;-85
2023/12/09 11:54:26;;;;;;;92.00;41.60;;;;;;;1.70;100.00;100293.78;213923;1292;140884;-85
2023/12/09 11:59:27;;;;;;;96.20;41.90;;;;;;;1.70;100.00;100283.81;214438;1290;139713;-86
2023/12/09 12:04:33;;;;;;;85.90;41.10;;;;;;;1.72;100.00;100275.58;216225;1288;140116;-86
2023/12/09 12:09:33;;;;;;;83.40;37.00;;;;;;;1.75;100.00;100264.08;214284;1293;139775;-86
2023/12/09 12:14:36;;;;;;;83.10;39.10;;;;;;;1.77;100.00;100262.77;213923;1291;141403;-87
2023/12/09 12:19:36;;;;;;;79.80;38.40;;;;;;;1.79;100.00;100260.57;214282;1292;97969;-86
2023/12/09 12:24:41;;;;;;;79.30;37.20;;;;;;;1.83;100.00;100254.65;213795;1290;140281;-87
2023/12/09 12:29:49;;;;;;;86.50;38.90;;;;;;;1.87;100.00;100252.05;214527;1292;139848;-85
2023/12/09 12:34:52;;;;;;;81.20;37.40;;;;;;;1.88;100.00;100258.21;214916;1290;139678;-86
2023/12/09 12:39:52;;;;;;;87.70;39.50;;;;;;;1.89;100.00;100255.15;214682;1290;141038;-84
2023/12/09 12:44:52;;;;;;;86.00;38.50;;;;;;;1.90;100.00;100254.82;215339;1292;140061;-86
2023/12/09 12:49:53;;;;;;;80.90;36.00;;;;;;;1.92;100.00;100240.39;214652;1291;141257;-85
2023/12/09 12:54:54;;;;;;;87.00;36.90;;;;;;;1.94;100.00;100238.31;215103;1289;139019;-86
2023/12/09 12:59:55;;;;;;;75.40;34.50;;;;;;;1.95;100.00;100229.90;214804;1291;141188;-86
2023/12/09 13:04:55;;;;;;;77.60;34.60;;;;;;;1.97;100.00;100219.21;215623;1292;139238;-87
2023/12/09 13:09:56;;;;;;;79.90;35.60;;;;;;;1.98;100.00;100202.03;217504;1289;141239;-88
2023/12/09 13:14:56;;;;;;;77.30;35.70;;;;;;;1.99;100.00;100202.46;217423;1291;139230;-86
2023/12/09 13:19:57;;;;;;;74.00;34.20;;;;;;;2.00;100.00;100198.85;213990;1292;141086;-86
2023/12/09 13:24:57;;;;;;;73.30;33.10;;;;;;;2.00;100.00;100194.67;214441;1292;140260;-85
2023/12/09 13:30:00;;;;;;;74.90;33.30;;;;;;;2.00;100.00;100192.43;213833;1292;140934;-88
2023/12/09 13:35:01;;;;;;;88.60;38.70;;;;;;;1.99;100.00;100183.34;214272;1292;140392;-88
2023/12/09 13:40:02;;;;;;;78.90;37.80;;;;;;;1.98;100.00;100180.41;213778;1292;140769;-88
2023/12/09 13:45:05;;;;;;;97.60;41.40;;;;;;;1.95;100.00;100171.92;214471;1293;139941;-88
2023/12/09 13:50:07;;;;;;;105.20;50.20;;;;;;;1.94;100.00;100172.66;214008;1292;140818;-88
2023/12/09 13:55:08;;;;;;;101.10;48.30;;;;;;;1.93;100.00;100167.11;214445;1289;140612;-87
2023/12/09 14:00:10;;;;;;;99.40;46.50;;;;;;;1.92;100.00;100162.40;213801;1292;141155;-87
2023/12/09 14:05:13;;;;;;;91.00;42.80;;;;;;;1.90;100.00;100159.25;214220;1292;140667;-88
2023/12/09 14:10:14;;;;;;;87.80;42.60;;;;;;;1.88;100.00;100161.48;214257;1288;140713;-87
2023/12/09 14:15:15;;;;;;;88.80;42.70;;;;;;;1.88;100.00;100165.63;215368;1290;139277;-88
2023/12/09 14:20:16;;;;;;;85.60;41.80;;;;;;;1.87;100.00;100161.59;215080;1292;140696;-88
2023/12/09 14:25:17;;;;;;;93.50;43.60;;;;;;;1.87;100.00;100163.81;215586;1289;140445;-88
2023/12/09 14:30:18;;;;;;;87.30;42.50;;;;;;;1.87;100.00;100160.41;214999;1292;140566;-88
2023/12/09 14:35:19;;;;;;;89.20;43.10;;;;;;;1.85;100.00;100155.48;215305;1292;139328;-88
2023/12/09 14:40:19;;;;;;;87.10;43.50;;;;;;;1.82;100.00;100151.69;214760;1290;140585;-88
2023/12/09 14:45:20;;;;;;;83.60;43.00;;;;;;;1.80;100.00;100140.77;215617;1289;140629;-88
2023/12/09 14:50:21;;;;;;;83.50;40.10;;;;;;;1.79;100.00;100140.10;216130;1289;141589;-88
2023/12/09 14:55:21;;;;;;;81.20;41.30;;;;;;;1.81;100.00;100139.08;217952;1289;139681;-87
2023/12/09 15:00:22;;;;;;;75.70;37.70;;;;;;;1.81;100.00;100135.13;216624;1289;140631;-88
2023/12/09 15:05:22;;;;;;;73.00;35.70;;;;;;;1.80;100.00;100133.79;214448;1292;139972;-88
2023/12/09 15:10:23;;;;;;;75.60;36.30;;;;;;;1.80;100.00;100141.08;214472;1292;141112;-89
2023/12/09 15:15:24;;;;;;;64.00;33.10;;;;;;;1.80;100.00;100137.35;214608;1291;139912;-88
2023/12/09 15:20:24;;;;;;;74.60;35.50;;;;;;;1.78;100.00;100133.54;213944;1292;140495;-89
2023/12/09 15:25:25;;;;;;;70.10;33.10;;;;;;;1.76;100.00;100127.52;214315;1289;139487;-88
2023/12/09 15:30:26;;;;;;;68.90;31.90;;;;;;;1.74;100.00;100118.02;213830;1289;140675;-87
2023/12/09 15:35:26;;;;;;;69.90;33.50;;;;;;;1.71;100.00;100111.41;214250;1290;140104;-87
2023/12/09 15:40:27;;;;;;;72.30;33.80;;;;;;;1.70;100.00;100102.96;213835;1290;141186;-89
2023/12/09 15:45:28;;;;;;;61.80;31.40;;;;;;;1.69;100.00;100107.19;214150;1290;139786;-89
2023/12/09 15:50:28;;;;;;;66.60;32.30;;;;;;;1.68;100.00;100106.55;213951;1289;141174;-89
2023/12/09 15:55:32;;;;;;;64.80;31.70;;;;;;;1.68;100.00;100096.09;214811;1289;98047;-89
2023/12/09 16:00:33;;;;;;;72.00;36.20;;;;;;;1.67;100.00;100081.95;214918;1290;141333;-90
2023/12/09 16:05:34;;;;;;;69.00;33.10;;;;;;;1.70;100.00;100083.61;215579;1288;139611;-89
2023/12/09 16:10:36;;;;;;;76.70;35.70;;;;;;;1.69;100.00;100077.15;215021;1288;140583;-89
2023/12/09 16:15:36;;;;;;;65.00;33.20;;;;;;;1.70;100.00;100079.11;215594;1289;139340;-88
2023/12/09 16:20:37;;;;;;;70.90;34.60;;;;;;;1.71;100.00;100074.81;215025;1287;140235;-89
2023/12/09 16:25:38;;;;;;;69.00;39.00;;;;;;;1.71;100.00;100065.42;215813;1291;106066;-90
2023/12/09 16:30:39;;;;;;;74.50;34.90;;;;;;;1.73;100.00;100059.83;215040;1290;141108;-88
2023/12/09 16:35:40;;;;;;;63.40;32.30;;;;;;;1.73;100.00;100059.67;216417;1289;139285;-88
2023/12/09 16:40:43;;;;;;;83.80;48.70;;;;;;;1.72;100.00;100058.98;217255;1289;141537;-88
2023/12/09 16:45:43;;;;;;;117.10;56.80;;;;;;;1.73;100.00;100048.60;217309;1289;139330;-89
2023/12/09 16:50:45;;;;;;;88.80;48.70;;;;;;;1.73;100.00;100022.02;213960;1295;140953;-88
2023/12/09 16:55:46;;;;;;;79.90;39.80;;;;;;;1.71;100.00;100006.87;214746;1288;98654;-88
2023/12/09 17:00:46;;;;;;;79.00;39.90;;;;;;;1.70;100.00;99989.84;213987;1292;140158;-90
2023/12/09 17:05:47;;;;;;;72.70;38.30;;;;;;;1.67;100.00;99985.84;214459;1291;138902;-89
2023/12/09 17:10:47;;;;;;;78.30;39.90;;;;;;;1.65;100.00;99994.16;213719;1290;140329;-88
2023/12/09 17:15:48;;;;;;;73.80;38.60;;;;;;;1.65;100.00;99987.86;214223;1290;139268;-89
2023/12/09 17:20:49;;;;;;;73.60;40.10;;;;;;;1.62;100.00;99974.18;213656;1289;140524;-88
2023/12/09 17:25:49;;;;;;;83.50;39.50;;;;;;;1.61;100.00;99969.09;214346;1290;99272;-88
2023/12/09 17:30:50;;;;;;;88.30;42.50;;;;;;;1.62;100.00;99950.29;214041;1288;140935;-89
2023/12/09 17:35:51;;;;;;;88.40;49.60;;;;;;;1.62;100.00;99937.69;214592;1290;139578;-87
2023/12/09 17:40:51;;;;;;;74.10;39.30;;;;;;;1.61;100.00;99927.27;214104;1287;140642;-90
2023/12/09 17:45:52;;;;;;;87.80;40.80;;;;;;;1.62;100.00;99918.61;215363;1290;139106;-87
2023/12/09 17:50:52;;;;;;;82.20;40.80;;;;;;;1.62;100.00;99903.30;215070;1289;140552;-88
2023/12/09 17:55:55;;;;;;;71.10;35.40;;;;;;;1.60;100.00;99891.12;215585;1292;97594;-87
2023/12/09 18:00:56;;;;;;;74.10;38.50;;;;;;;1.60;100.00;99891.12;214943;1292;141114;-87
2023/12/09 18:05:56;;;;;;;69.90;34.10;;;;;;;1.63;100.00;99892.23;215671;1289;139491;-87
2023/12/09 18:10:57;;;;;;;74.00;36.80;;;;;;;1.64;100.00;99888.64;215179;1290;141125;-88
2023/12/09 18:15:59;;;;;;;67.90;35.30;;;;;;;1.66;100.00;99882.83;215511;1290;139050;-87
2023/12/09 18:21:00;;;;;;;67.40;32.30;;;;;;;1.66;100.00;99873.53;216275;1289;141442;-91
2023/12/09 18:26:00;;;;;;;72.50;36.30;;;;;;;1.66;100.00;99874.23;217825;1288;96742;-89
2023/12/09 18:31:03;;;;;;;70.60;35.70;;;;;;;1.69;100.00;99872.23;216046;1288;140841;-89
2023/12/09 18:36:06;;;;;;;70.40;35.10;;;;;;;1.69;100.00;99866.37;214374;1291;139010;-89
2023/12/09 18:41:07;;;;;;;76.10;37.30;;;;;;;1.69;100.00;99858.67;213692;1290;140690;-89
2023/12/09 18:46:07;;;;;;;74.10;33.90;;;;;;;1.66;100.00;99847.19;214089;1290;139090;-90
2023/12/09 18:51:08;;;;;;;66.80;33.20;;;;;;;1.62;100.00;99832.02;213845;1289;140515;-89
2023/12/09 18:56:11;;;;;;;71.30;36.90;;;;;;;1.58;100.00;99819.45;214372;1292;106094;-91
2023/12/09 19:01:14;;;;;;;74.10;39.80;;;;;;;1.55;100.00;99806.73;213694;1291;140910;-91
2023/12/09 19:06:15;;;;;;;75.10;38.70;;;;;;;1.52;100.00;99799.71;213937;1293;140262;-90
2023/12/09 19:11:16;;;;;;;70.30;35.20;;;;;;;1.51;100.00;99794.73;213463;1290;140704;-90
2023/12/09 19:16:16;;;;;;;71.10;37.70;;;;;;;1.50;100.00;99791.58;214098;1289;139090;-91
2023/12/09 19:21:18;;;;;;;69.40;36.20;;;;;;;1.47;100.00;99777.89;213765;1288;140370;-90
2023/12/09 19:26:19;;;;;;;59.90;30.80;;;;;;;1.45;100.00;99774.82;215023;1292;98896;-89
2023/12/09 19:31:20;;;;;;;76.30;37.90;;;;;;;1.43;100.00;99767.77;215344;1290;140115;-90
2023/12/09 19:36:21;;;;;;;60.50;33.50;;;;;;;1.40;100.00;99759.06;215129;1288;138864;-90
2023/12/09 19:41:22;;;;;;;70.50;34.10;;;;;;;1.36;100.00;99753.56;215328;1287;140259;-89
2023/12/09 19:46:23;;;;;;;64.60;36.60;;;;;;;1.32;100.00;99750.56;215143;1289;139084;-89
2023/12/09 19:51:24;;;;;;;63.40;32.50;;;;;;;1.32;100.00;99756.42;215305;1289;140681;-90
2023/12/09 19:56:25;;;;;;;71.80;34.60;;;;;;;1.31;100.00;99741.62;215242;1290;97395;-89
2023/12/09 20:01:26;;;;;;;62.80;30.60;;;;;;;1.31;100.00;99744.70;214815;1290;140488;-91
2023/12/09 20:06:26;;;;;;;65.40;32.20;;;;;;;1.33;100.00;99736.34;217592;1289;139383;-92
2023/12/09 20:11:28;;;;;;;64.40;33.10;;;;;;;1.33;100.00;99728.75;217245;1289;141073;-92
2023/12/09 20:16:28;;;;;;;60.90;30.80;;;;;;;1.33;100.00;99718.23;215072;1289;139744;-90
2023/12/09 20:21:29;;;;;;;60.30;31.10;;;;;;;1.34;100.00;99709.50;213756;1292;140871;-91
2023/12/09 20:26:31;;;;;;;72.10;37.00;;;;;;;1.33;100.00;99690.42;214100;1290;139200;-92
2023/12/09 20:31:32;;;;;;;67.30;36.00;;;;;;;1.33;100.00;99679.66;213613;1288;140605;-91
2023/12/09 20:36:33;;;;;;;70.50;34.70;;;;;;;1.32;100.00;99679.55;214348;1290;139369;-90
2023/12/09 20:41:34;;;;;;;72.50;35.90;;;;;;;1.31;100.00;99672.48;213742;1291;140678;-91
2023/12/09 20:46:38;;;;;;;75.90;37.90;;;;;;;1.31;100.00;99651.79;214125;1290;139186;-90
2023/12/09 20:51:43;;;;;;;79.70;38.20;;;;;;;1.29;100.00;99630.50;213464;1290;140744;-92
2023/12/09 20:56:48;;;;;;;71.00;35.40;;;;;;;1.28;100.00;99618.30;214335;1289;139000;-91
2023/12/09 21:01:50;;;;;;;65.20;32.90;;;;;;;1.28;100.00;99600.42;214756;1288;142977;-90
2023/12/09 21:06:51;;;;;;;68.00;34.40;;;;;;;1.27;100.00;99595.58;214536;1290;139162;-92
2023/12/09 21:11:53;;;;;;;65.00;31.80;;;;;;;1.26;100.00;99593.06;214754;1288;140691;-90
2023/12/09 21:16:56;;;;;;;64.20;31.20;;;;;;;1.25;100.00;99586.94;214958;1289;139083;-90
2023/12/09 21:21:57;;;;;;;68.80;33.30;;;;;;;1.24;100.00;99580.84;214516;1289;139768;-89
2023/12/09 21:26:59;;;;;;;71.50;33.60;;;;;;;1.22;100.00;99578.38;215331;1289;139041;-91
2023/12/09 21:32:01;;;;;;;78.50;35.70;;;;;;;1.22;100.00;99572.66;214810;1289;140473;-91
2023/12/09 21:37:01;;;;;;;70.80;34.70;;;;;;;1.19;100.00;99579.83;215158;1291;138985;-90
2023/12/09 21:42:03;;;;;;;73.50;37.50;;;;;;;1.18;100.00;99567.73;215197;1288;140657;-90
2023/12/09 21:47:04;;;;;;;69.10;36.10;;;;;;;1.17;100.00;99566.42;215926;1290;452628;-90
2023/12/09 21:52:04;;;;;;;78.20;34.50;;;;;;;1.14;100.00;99559.13;217392;1288;141401;-89
2023/12/09 21:57:05;;;;;;;108.90;43.10;;;;;;;1.13;100.00;99557.29;216635;1289;139145;-88
2023/12/09 22:02:06;;;;;;;88.80;38.80;;;;;;;1.08;100.00;99548.33;214488;1290;140157;-87
2023/12/09 22:07:06;;;;;;;71.70;34.40;;;;;;;1.06;100.00;99554.89;214851;1290;139724;-87
2023/12/09 22:12:07;;;;;;;82.70;38.80;;;;;;;1.03;100.00;99550.70;214764;1290;141226;-88